Noble Oak — 3ECQ — position and weather

sailwx.info

Track history (hours):
 
Tides and Currents Weather Stations Pressure Air Temp Water Temp Dewpoint Dewpoint Depression Visibility Wind Speed Wind Dir Waves Ship Positions

Noble Oak

Last reported at 2018-Jul-15 18:17 UTC. Time now 2018-Jul-22 04:59 UTC.
Position N 22°49' E 120°05'.

Length 170 m; draft 5.5 m.

Type: Cargo ship. MMSI: 371387000.

Date/timePositionNaut miles runAvg speedWind from/ knotsBaromVisibWave heightAir tempDewpointWater temp
2018-Jul-15 18:17N 22°49' E 120°05'310.8
2018-Jul-15 17:59N 22°46' E 120°07'511.3
2018-Jul-15 17:30N 22°42' E 120°10'611.0
2018-Jul-15 17:00N 22°38' E 120°14'4 7.2
2018-Jul-15 16:30N 22°36' E 120°18'1 1.0
2018-Jul-15 16:00N 22°36' E 120°18'0 0.0
2018-Jul-15 15:24N 22°36' E 120°18'0 0.0
2018-Jul-15 15:00N 22°36' E 120°18'0 0.0
2018-Jul-15 14:24N 22°36' E 120°18'0 0.0
2018-Jul-15 14:00N 22°36' E 120°18'0 0.0
2018-Jul-15 13:24N 22°36' E 120°18'0 0.0
2018-Jul-15 13:00N 22°36' E 120°18'0 0.0
2018-Jul-15 12:18N 22°36' E 120°18'0 0.0
2018-Jul-15 11:54N 22°36' E 120°18'0 0.0
2018-Jul-15 11:30N 22°36' E 120°18'0 0.0
2018-Jul-15 11:00N 22°36' E 120°18'0 0.0
2018-Jul-15 10:30N 22°36' E 120°18'0 0.0
2018-Jul-15 09:54N 22°36' E 120°18'0 0.0
2018-Jul-15 09:30N 22°36' E 120°18'0 0.0
2018-Jul-14 23:54N 22°36' E 120°18'1 1.7
2018-Jul-14 23:27N 22°37' E 120°17'3 7.2
2018-Jul-14 23:00N 22°37' E 120°14'1 1.3
2018-Jul-14 22:26N 22°36' E 120°14'0 0.1
2018-Jul-14 21:56N 22°36' E 120°14'0 0.0
2018-Jul-14 21:29N 22°36' E 120°14'0 0.0
2018-Jul-14 20:53N 22°36' E 120°14'0 0.0
2018-Jul-14 20:17N 22°36' E 120°14'0 0.0
2018-Jul-14 19:53N 22°36' E 120°14'0 0.0
2018-Jul-14 16:05N 22°37' E 120°13'0 0.0
2018-Jul-14 15:59N 22°37' E 120°13'0 0.0
2018-Jul-14 15:29N 22°37' E 120°13'0 0.0
2018-Jul-14 14:53N 22°37' E 120°13'0 0.0
2018-Jul-14 13:59N 22°37' E 120°13'0 0.1
2018-Jul-14 12:41N 22°36' E 120°14'0 0.0
2018-Jul-14 11:17N 22°36' E 120°14'0 0.0
2018-Jul-14 10:59N 22°36' E 120°14'0 0.0
2018-Jul-14 10:17N 22°36' E 120°14'0 0.0
2018-Jul-14 09:53N 22°36' E 120°14'0 0.2
2018-Jul-14 09:29N 22°36' E 120°14'0 0.1
2018-Jul-14 08:59N 22°36' E 120°14'0 0.0
2018-Jul-14 08:29N 22°37' E 120°14'0 0.0
2018-Jul-14 07:59N 22°37' E 120°14'0 0.0
2018-Jul-14 07:29N 22°37' E 120°14'0 0.0
2018-Jul-14 06:59N 22°37' E 120°14'0 0.1
2018-Jul-14 06:23N 22°37' E 120°14'0 0.0
2018-Jul-14 03:29N 22°37' E 120°13'0 0.4
2018-Jul-14 02:58N 22°36' E 120°13'2 5.4
2018-Jul-14 02:30N 22°34' E 120°12'811.7
2018-Jul-14 01:49N 22°26' E 120°15'411.6
2018-Jul-14 01:30N 22°23' E 120°16'611.1
2018-Jul-14 01:00N 22°18' E 120°19'  
2018-Jul-08 10:19N 33°54' E 134°55'310.6
2018-Jul-08 10:00N 33°57' E 134°56'510.5
2018-Jul-08 09:30N 34°02' E 134°59'510.3
2018-Jul-08 09:00N 34°06' E 135°01'510.5
2018-Jul-08 08:30N 34°11' E 135°04'4 7.9
2018-Jul-08 08:00N 34°14' E 135°07'1 1.2
2018-Jul-08 07:30N 34°14' E 135°07'0 0.0
2018-Jul-08 07:00N 34°14' E 135°07'0 0.0
2018-Jul-08 06:30N 34°14' E 135°07'0 0.0
2018-Jul-08 06:00N 34°14' E 135°07'0 0.0
2018-Jul-08 05:30N 34°14' E 135°07'0 0.0
2018-Jul-08 05:00N 34°14' E 135°07'0 0.0
2018-Jul-08 04:30N 34°14' E 135°07'0 0.0
2018-Jul-08 04:00N 34°14' E 135°07'0 0.0
2018-Jul-08 03:30N 34°14' E 135°07'0 0.0
2018-Jul-08 03:00N 34°14' E 135°07'0 0.0
2018-Jul-08 02:30N 34°14' E 135°07'0 0.0
2018-Jul-08 02:00N 34°14' E 135°07'0 0.0
2018-Jul-08 01:30N 34°14' E 135°07'0 0.0
2018-Jul-08 01:00N 34°14' E 135°07'0 0.0
2018-Jul-08 00:30N 34°14' E 135°07'0 0.0
2018-Jul-08 00:00N 34°14' E 135°07'0 0.0
2018-Jul-07 23:30N 34°14' E 135°07'0 0.0
2018-Jul-07 23:00N 34°14' E 135°07'0 0.0
2018-Jul-07 22:30N 34°14' E 135°07'0 0.0
2018-Jul-07 22:00N 34°14' E 135°07'0 0.0
2018-Jul-07 21:30N 34°14' E 135°07'0 0.0
2018-Jul-07 21:00N 34°14' E 135°07'0 0.0
2018-Jul-07 20:30N 34°14' E 135°07'0 0.0
2018-Jul-07 20:00N 34°14' E 135°07'0 0.0
2018-Jul-07 19:30N 34°14' E 135°07'0 0.0
2018-Jul-07 19:00N 34°14' E 135°07'0 0.0
2018-Jul-07 18:30N 34°14' E 135°07'0 0.0
2018-Jul-07 18:00N 34°14' E 135°07'0 0.0
2018-Jul-07 17:30N 34°14' E 135°07'0 0.0
2018-Jul-07 17:00N 34°14' E 135°07'0 0.0
2018-Jul-07 16:30N 34°14' E 135°07'0 0.0
2018-Jul-07 16:00N 34°14' E 135°07'0 0.0
2018-Jul-07 15:30N 34°14' E 135°07'0 0.0
2018-Jul-07 15:00N 34°14' E 135°07'0 0.0
2018-Jul-07 14:30N 34°14' E 135°07'0 0.0
2018-Jul-07 14:00N 34°14' E 135°07'0 0.0
2018-Jul-07 13:30N 34°14' E 135°07'0 0.0
2018-Jul-07 13:00N 34°14' E 135°07'0 0.0
2018-Jul-07 12:30N 34°14' E 135°07'0 0.0
2018-Jul-07 12:00N 34°14' E 135°07'0 0.0
2018-Jul-07 11:30N 34°14' E 135°07'0 0.0
2018-Jul-07 11:00N 34°14' E 135°07'0 0.0
2018-Jul-07 10:27N 34°14' E 135°07'0 0.0
2018-Jul-07 10:00N 34°14' E 135°07'0 0.0
2018-Jul-07 09:30N 34°14' E 135°07'0 0.0
2018-Jul-07 09:00N 34°14' E 135°07'0 0.0
2018-Jul-07 08:30N 34°14' E 135°07'0 0.0
2018-Jul-07 08:00N 34°14' E 135°07'0 0.0
2018-Jul-07 07:30N 34°14' E 135°07'0 0.0
2018-Jul-07 07:00N 34°14' E 135°07'0 0.0
2018-Jul-07 06:30N 34°14' E 135°07'0 0.0
2018-Jul-07 06:00N 34°14' E 135°07'0 0.0
2018-Jul-07 05:24N 34°14' E 135°07'0 0.0
2018-Jul-07 05:00N 34°14' E 135°07'0 0.0
2018-Jul-07 04:30N 34°14' E 135°07'0 0.0
2018-Jul-07 04:00N 34°14' E 135°07'0 0.0
2018-Jul-07 03:30N 34°14' E 135°07'0 0.0
2018-Jul-07 03:00N 34°14' E 135°07'0 0.0
2018-Jul-07 02:30N 34°14' E 135°07'0 0.0
2018-Jul-07 02:00N 34°14' E 135°07'0 0.0
2018-Jul-07 01:30N 34°14' E 135°07'0 0.0
2018-Jul-07 01:00N 34°14' E 135°07'0 0.0
2018-Jul-07 00:30N 34°14' E 135°07'0 0.0
2018-Jul-07 00:00N 34°14' E 135°07'0 0.0
2018-Jul-06 23:30N 34°14' E 135°07'0 0.0
2018-Jul-06 23:00N 34°14' E 135°07'0 0.0
2018-Jul-06 22:30N 34°14' E 135°07'0 0.0
2018-Jul-06 22:00N 34°14' E 135°07'0 0.0
2018-Jul-06 21:30N 34°14' E 135°07'0 0.0
2018-Jul-06 21:00N 34°14' E 135°07'0 0.0
2018-Jul-06 20:30N 34°14' E 135°07'0 0.0
2018-Jul-06 20:00N 34°14' E 135°07'0 0.0
2018-Jul-06 19:30N 34°14' E 135°07'0 0.0
2018-Jul-06 19:00N 34°14' E 135°07'0 0.0
2018-Jul-06 18:30N 34°14' E 135°07'0 0.0
2018-Jul-06 18:00N 34°14' E 135°07'0 0.0
2018-Jul-06 17:30N 34°14' E 135°07'0 0.0
2018-Jul-06 17:00N 34°14' E 135°07'0 0.0
2018-Jul-06 16:30N 34°14' E 135°07'0 0.0
2018-Jul-06 16:00N 34°14' E 135°07'0 0.0
2018-Jul-06 15:30N 34°14' E 135°07'0 0.0
2018-Jul-06 15:00N 34°14' E 135°07'0 0.0
2018-Jul-06 14:30N 34°14' E 135°07'0 0.0
2018-Jul-06 14:00N 34°14' E 135°07'0 0.0
2018-Jul-06 13:30N 34°14' E 135°07'0 0.0
2018-Jul-06 13:00N 34°14' E 135°07'0 0.0
2018-Jul-06 12:30N 34°14' E 135°07'0 0.0
2018-Jul-06 12:00N 34°14' E 135°07'0 0.0
2018-Jul-06 11:30N 34°14' E 135°07'0 0.0
2018-Jul-06 11:00N 34°14' E 135°07'0 0.0
2018-Jul-06 10:30N 34°14' E 135°07'0 0.0
2018-Jul-06 10:00N 34°14' E 135°07'0 0.0
2018-Jul-06 09:30N 34°14' E 135°07'0 0.0
2018-Jul-06 09:00N 34°14' E 135°07'0 0.0
2018-Jul-06 08:30N 34°14' E 135°07'0 0.0
2018-Jul-06 08:00N 34°14' E 135°07'0 0.0
2018-Jul-06 07:30N 34°14' E 135°07'0 0.0
2018-Jul-06 07:00N 34°14' E 135°07'0 0.0
2018-Jul-06 06:30N 34°14' E 135°07'0 0.0
2018-Jul-06 06:00N 34°14' E 135°07'0 0.0
2018-Jul-06 05:30N 34°14' E 135°07'0 0.0
2018-Jul-06 05:00N 34°14' E 135°07'0 0.0
2018-Jul-06 04:30N 34°14' E 135°07'0 0.0
2018-Jul-06 04:00N 34°14' E 135°07'0 0.0
2018-Jul-06 03:30N 34°14' E 135°07'0 0.0
2018-Jul-06 03:00N 34°14' E 135°07'0 0.0
2018-Jul-06 02:30N 34°14' E 135°07'0 0.0
2018-Jul-06 02:00N 34°14' E 135°07'0 0.0
2018-Jul-06 01:30N 34°14' E 135°07'0 0.0
2018-Jul-06 01:00N 34°14' E 135°07'0 0.0
2018-Jul-06 00:30N 34°14' E 135°07'0 0.0
2018-Jul-06 00:00N 34°14' E 135°07'0 0.0
2018-Jul-05 23:30N 34°14' E 135°07'0 0.0
2018-Jul-05 23:00N 34°14' E 135°07'0 0.0
2018-Jul-05 22:30N 34°14' E 135°07'0 0.0
2018-Jul-05 22:00N 34°14' E 135°07'0 0.0
2018-Jul-05 21:30N 34°14' E 135°07'0 0.0
2018-Jul-05 21:00N 34°14' E 135°07'0 0.0
2018-Jul-05 20:30N 34°14' E 135°07'0 0.0
2018-Jul-05 20:00N 34°14' E 135°07'0 0.0
2018-Jul-05 19:30N 34°14' E 135°07'0 0.0
2018-Jul-05 19:00N 34°14' E 135°07'0 0.0
2018-Jul-05 18:30N 34°14' E 135°07'  
Track history (hours):
 
Tides and Currents Weather Stations Pressure Air Temp Water Temp Dewpoint Dewpoint Depression Visibility Wind Speed Wind Dir Waves Ship Positions

Noble Oak

Last reported at 2018-Jul-15 18:17 UTC. Time now 2018-Jul-22 04:59 UTC.
Position N 22°49' E 120°05'.

Length 170 m; draft 5.5 m.

Type: Cargo ship. MMSI: 371387000.

Date/timePositionNaut miles runAvg speedWind from/ knotsBaromVisibWave heightAir tempDewpointWater temp
2018-Jul-15 18:17N 22°49' E 120°05'310.8
2018-Jul-15 17:59N 22°46' E 120°07'511.3
2018-Jul-15 17:30N 22°42' E 120°10'611.0
2018-Jul-15 17:00N 22°38' E 120°14'4 7.2
2018-Jul-15 16:30N 22°36' E 120°18'1 1.0
2018-Jul-15 16:00N 22°36' E 120°18'0 0.0
2018-Jul-15 15:24N 22°36' E 120°18'0 0.0
2018-Jul-15 15:00N 22°36' E 120°18'0 0.0
2018-Jul-15 14:24N 22°36' E 120°18'0 0.0
2018-Jul-15 14:00N 22°36' E 120°18'0 0.0
2018-Jul-15 13:24N 22°36' E 120°18'0 0.0
2018-Jul-15 13:00N 22°36' E 120°18'0 0.0
2018-Jul-15 12:18N 22°36' E 120°18'0 0.0
2018-Jul-15 11:54N 22°36' E 120°18'0 0.0
2018-Jul-15 11:30N 22°36' E 120°18'0 0.0
2018-Jul-15 11:00N 22°36' E 120°18'0 0.0
2018-Jul-15 10:30N 22°36' E 120°18'0 0.0
2018-Jul-15 09:54N 22°36' E 120°18'0 0.0
2018-Jul-15 09:30N 22°36' E 120°18'0 0.0
2018-Jul-14 23:54N 22°36' E 120°18'1 1.7
2018-Jul-14 23:27N 22°37' E 120°17'3 7.2
2018-Jul-14 23:00N 22°37' E 120°14'1 1.3
2018-Jul-14 22:26N 22°36' E 120°14'0 0.1
2018-Jul-14 21:56N 22°36' E 120°14'0 0.0
2018-Jul-14 21:29N 22°36' E 120°14'0 0.0
2018-Jul-14 20:53N 22°36' E 120°14'0 0.0
2018-Jul-14 20:17N 22°36' E 120°14'0 0.0
2018-Jul-14 19:53N 22°36' E 120°14'0 0.0
2018-Jul-14 16:05N 22°37' E 120°13'0 0.0
2018-Jul-14 15:59N 22°37' E 120°13'0 0.0
2018-Jul-14 15:29N 22°37' E 120°13'0 0.0
2018-Jul-14 14:53N 22°37' E 120°13'0 0.0
2018-Jul-14 13:59N 22°37' E 120°13'0 0.1
2018-Jul-14 12:41N 22°36' E 120°14'0 0.0
2018-Jul-14 11:17N 22°36' E 120°14'0 0.0
2018-Jul-14 10:59N 22°36' E 120°14'0 0.0
2018-Jul-14 10:17N 22°36' E 120°14'0 0.0
2018-Jul-14 09:53N 22°36' E 120°14'0 0.2
2018-Jul-14 09:29N 22°36' E 120°14'0 0.1
2018-Jul-14 08:59N 22°36' E 120°14'0 0.0
2018-Jul-14 08:29N 22°37' E 120°14'0 0.0
2018-Jul-14 07:59N 22°37' E 120°14'0 0.0
2018-Jul-14 07:29N 22°37' E 120°14'0 0.0
2018-Jul-14 06:59N 22°37' E 120°14'0 0.1
2018-Jul-14 06:23N 22°37' E 120°14'0 0.0
2018-Jul-14 03:29N 22°37' E 120°13'0 0.4
2018-Jul-14 02:58N 22°36' E 120°13'2 5.4
2018-Jul-14 02:30N 22°34' E 120°12'811.7
2018-Jul-14 01:49N 22°26' E 120°15'411.6
2018-Jul-14 01:30N 22°23' E 120°16'611.1
2018-Jul-14 01:00N 22°18' E 120°19'  
2018-Jul-08 10:19N 33°54' E 134°55'310.6
2018-Jul-08 10:00N 33°57' E 134°56'510.5
2018-Jul-08 09:30N 34°02' E 134°59'510.3
2018-Jul-08 09:00N 34°06' E 135°01'510.5
2018-Jul-08 08:30N 34°11' E 135°04'4 7.9
2018-Jul-08 08:00N 34°14' E 135°07'1 1.2
2018-Jul-08 07:30N 34°14' E 135°07'0 0.0
2018-Jul-08 07:00N 34°14' E 135°07'0 0.0
2018-Jul-08 06:30N 34°14' E 135°07'0 0.0
2018-Jul-08 06:00N 34°14' E 135°07'0 0.0
2018-Jul-08 05:30N 34°14' E 135°07'0 0.0
2018-Jul-08 05:00N 34°14' E 135°07'0 0.0
2018-Jul-08 04:30N 34°14' E 135°07'0 0.0
2018-Jul-08 04:00N 34°14' E 135°07'0 0.0
2018-Jul-08 03:30N 34°14' E 135°07'0 0.0
2018-Jul-08 03:00N 34°14' E 135°07'0 0.0
2018-Jul-08 02:30N 34°14' E 135°07'0 0.0
2018-Jul-08 02:00N 34°14' E 135°07'0 0.0
2018-Jul-08 01:30N 34°14' E 135°07'0 0.0
2018-Jul-08 01:00N 34°14' E 135°07'0 0.0
2018-Jul-08 00:30N 34°14' E 135°07'0 0.0
2018-Jul-08 00:00N 34°14' E 135°07'0 0.0
2018-Jul-07 23:30N 34°14' E 135°07'0 0.0
2018-Jul-07 23:00N 34°14' E 135°07'0 0.0
2018-Jul-07 22:30N 34°14' E 135°07'0 0.0
2018-Jul-07 22:00N 34°14' E 135°07'0 0.0
2018-Jul-07 21:30N 34°14' E 135°07'0 0.0
2018-Jul-07 21:00N 34°14' E 135°07'0 0.0
2018-Jul-07 20:30N 34°14' E 135°07'0 0.0
2018-Jul-07 20:00N 34°14' E 135°07'0 0.0
2018-Jul-07 19:30N 34°14' E 135°07'0 0.0
2018-Jul-07 19:00N 34°14' E 135°07'0 0.0
2018-Jul-07 18:30N 34°14' E 135°07'0 0.0
2018-Jul-07 18:00N 34°14' E 135°07'0 0.0
2018-Jul-07 17:30N 34°14' E 135°07'0 0.0
2018-Jul-07 17:00N 34°14' E 135°07'0 0.0
2018-Jul-07 16:30N 34°14' E 135°07'0 0.0
2018-Jul-07 16:00N 34°14' E 135°07'0 0.0
2018-Jul-07 15:30N 34°14' E 135°07'0 0.0
2018-Jul-07 15:00N 34°14' E 135°07'0 0.0
2018-Jul-07 14:30N 34°14' E 135°07'0 0.0
2018-Jul-07 14:00N 34°14' E 135°07'0 0.0
2018-Jul-07 13:30N 34°14' E 135°07'0 0.0
2018-Jul-07 13:00N 34°14' E 135°07'0 0.0
2018-Jul-07 12:30N 34°14' E 135°07'0 0.0
2018-Jul-07 12:00N 34°14' E 135°07'0 0.0
2018-Jul-07 11:30N 34°14' E 135°07'0 0.0
2018-Jul-07 11:00N 34°14' E 135°07'0 0.0
2018-Jul-07 10:27N 34°14' E 135°07'0 0.0
2018-Jul-07 10:00N 34°14' E 135°07'0 0.0
2018-Jul-07 09:30N 34°14' E 135°07'0 0.0
2018-Jul-07 09:00N 34°14' E 135°07'0 0.0
2018-Jul-07 08:30N 34°14' E 135°07'0 0.0
2018-Jul-07 08:00N 34°14' E 135°07'0 0.0
2018-Jul-07 07:30N 34°14' E 135°07'0 0.0
2018-Jul-07 07:00N 34°14' E 135°07'0 0.0
2018-Jul-07 06:30N 34°14' E 135°07'0 0.0
2018-Jul-07 06:00N 34°14' E 135°07'0 0.0
2018-Jul-07 05:24N 34°14' E 135°07'0 0.0
2018-Jul-07 05:00N 34°14' E 135°07'0 0.0
2018-Jul-07 04:30N 34°14' E 135°07'0 0.0
2018-Jul-07 04:00N 34°14' E 135°07'0 0.0
2018-Jul-07 03:30N 34°14' E 135°07'0 0.0
2018-Jul-07 03:00N 34°14' E 135°07'0 0.0
2018-Jul-07 02:30N 34°14' E 135°07'0 0.0
2018-Jul-07 02:00N 34°14' E 135°07'0 0.0
2018-Jul-07 01:30N 34°14' E 135°07'0 0.0
2018-Jul-07 01:00N 34°14' E 135°07'0 0.0
2018-Jul-07 00:30N 34°14' E 135°07'0 0.0
2018-Jul-07 00:00N 34°14' E 135°07'0 0.0
2018-Jul-06 23:30N 34°14' E 135°07'0 0.0
2018-Jul-06 23:00N 34°14' E 135°07'0 0.0
2018-Jul-06 22:30N 34°14' E 135°07'0 0.0
2018-Jul-06 22:00N 34°14' E 135°07'0 0.0
2018-Jul-06 21:30N 34°14' E 135°07'0 0.0
2018-Jul-06 21:00N 34°14' E 135°07'0 0.0
2018-Jul-06 20:30N 34°14' E 135°07'0 0.0
2018-Jul-06 20:00N 34°14' E 135°07'0 0.0
2018-Jul-06 19:30N 34°14' E 135°07'0 0.0
2018-Jul-06 19:00N 34°14' E 135°07'0 0.0
2018-Jul-06 18:30N 34°14' E 135°07'0 0.0
2018-Jul-06 18:00N 34°14' E 135°07'0 0.0
2018-Jul-06 17:30N 34°14' E 135°07'0 0.0
2018-Jul-06 17:00N 34°14' E 135°07'0 0.0
2018-Jul-06 16:30N 34°14' E 135°07'0 0.0
2018-Jul-06 16:00N 34°14' E 135°07'0 0.0
2018-Jul-06 15:30N 34°14' E 135°07'0 0.0
2018-Jul-06 15:00N 34°14' E 135°07'0 0.0
2018-Jul-06 14:30N 34°14' E 135°07'0 0.0
2018-Jul-06 14:00N 34°14' E 135°07'0 0.0
2018-Jul-06 13:30N 34°14' E 135°07'0 0.0
2018-Jul-06 13:00N 34°14' E 135°07'0 0.0
2018-Jul-06 12:30N 34°14' E 135°07'0 0.0
2018-Jul-06 12:00N 34°14' E 135°07'0 0.0
2018-Jul-06 11:30N 34°14' E 135°07'0 0.0
2018-Jul-06 11:00N 34°14' E 135°07'0 0.0
2018-Jul-06 10:30N 34°14' E 135°07'0 0.0
2018-Jul-06 10:00N 34°14' E 135°07'0 0.0
2018-Jul-06 09:30N 34°14' E 135°07'0 0.0
2018-Jul-06 09:00N 34°14' E 135°07'0 0.0
2018-Jul-06 08:30N 34°14' E 135°07'0 0.0
2018-Jul-06 08:00N 34°14' E 135°07'0 0.0
2018-Jul-06 07:30N 34°14' E 135°07'0 0.0
2018-Jul-06 07:00N 34°14' E 135°07'0 0.0
2018-Jul-06 06:30N 34°14' E 135°07'0 0.0
2018-Jul-06 06:00N 34°14' E 135°07'0 0.0
2018-Jul-06 05:30N 34°14' E 135°07'0 0.0
2018-Jul-06 05:00N 34°14' E 135°07'0 0.0
2018-Jul-06 04:30N 34°14' E 135°07'0 0.0
2018-Jul-06 04:00N 34°14' E 135°07'0 0.0
2018-Jul-06 03:30N 34°14' E 135°07'0 0.0
2018-Jul-06 03:00N 34°14' E 135°07'0 0.0
2018-Jul-06 02:30N 34°14' E 135°07'0 0.0
2018-Jul-06 02:00N 34°14' E 135°07'0 0.0
2018-Jul-06 01:30N 34°14' E 135°07'0 0.0
2018-Jul-06 01:00N 34°14' E 135°07'0 0.0
2018-Jul-06 00:30N 34°14' E 135°07'0 0.0
2018-Jul-06 00:00N 34°14' E 135°07'0 0.0
2018-Jul-05 23:30N 34°14' E 135°07'0 0.0
2018-Jul-05 23:00N 34°14' E 135°07'0 0.0
2018-Jul-05 22:30N 34°14' E 135°07'0 0.0
2018-Jul-05 22:00N 34°14' E 135°07'0 0.0
2018-Jul-05 21:30N 34°14' E 135°07'0 0.0
2018-Jul-05 21:00N 34°14' E 135°07'0 0.0
2018-Jul-05 20:30N 34°14' E 135°07'0 0.0
2018-Jul-05 20:00N 34°14' E 135°07'0 0.0
2018-Jul-05 19:30N 34°14' E 135°07'0 0.0
2018-Jul-05 19:00N 34°14' E 135°07'0 0.0
2018-Jul-05 18:30N 34°14' E 135°07'  

Dump ship's entire track history